sensor_id;sensor_type;location;lat;lon;timestamp;temperature;humidity
7654;DHT22;3869;48.406;10.774;2022-12-20T00:01:43;0.10;99.90
7654;DHT22;3869;48.406;10.774;2022-12-20T00:04:11;0.10;99.90
7654;DHT22;3869;48.406;10.774;2022-12-20T00:06:39;0.20;99.90
7654;DHT22;3869;48.406;10.774;2022-12-20T00:09:10;0.20;99.90
7654;DHT22;3869;48.406;10.774;2022-12-20T00:11:39;0.20;99.90
7654;DHT22;3869;48.406;10.774;2022-12-20T00:14:08;0.20;99.90
7654;DHT22;3869;48.406;10.774;2022-12-20T00:16:36;0.20;99.90
7654;DHT22;3869;48.406;10.774;2022-12-20T00:19:06;0.20;99.90
7654;DHT22;3869;48.406;10.774;2022-12-20T00:21:35;0.20;99.90
7654;DHT22;3869;48.406;10.774;2022-12-20T00:24:04;0.20;99.90
7654;DHT22;3869;48.406;10.774;2022-12-20T00:26:33;0.20;99.90
7654;DHT22;3869;48.406;10.774;2022-12-20T00:29:02;0.30;99.90
7654;DHT22;3869;48.406;10.774;2022-12-20T00:31:31;0.30;99.90
7654;DHT22;3869;48.406;10.774;2022-12-20T00:34:00;0.30;99.90
7654;DHT22;3869;48.406;10.774;2022-12-20T00:36:30;0.30;99.90
7654;DHT22;3869;48.406;10.774;2022-12-20T00:38:59;0.30;99.90
7654;DHT22;3869;48.406;10.774;2022-12-20T00:41:29;0.30;99.90
7654;DHT22;3869;48.406;10.774;2022-12-20T00:43:57;0.30;99.90
7654;DHT22;3869;48.406;10.774;2022-12-20T00:46:25;0.30;99.90
7654;DHT22;3869;48.406;10.774;2022-12-20T00:48:55;0.20;99.90
7654;DHT22;3869;48.406;10.774;2022-12-20T00:51:25;0.20;99.90
7654;DHT22;3869;48.406;10.774;2022-12-20T00:53:55;0.10;99.90
7654;DHT22;3869;48.406;10.774;2022-12-20T00:56:23;0.10;99.90
7654;DHT22;3869;48.406;10.774;2022-12-20T00:58:52;0.10;99.90
7654;DHT22;3869;48.406;10.774;2022-12-20T01:01:22;0.20;99.90
7654;DHT22;3869;48.406;10.774;2022-12-20T01:03:51;0.20;99.90
7654;DHT22;3869;48.406;10.774;2022-12-20T01:06:21;0.30;99.90
7654;DHT22;3869;48.406;10.774;2022-12-20T01:08:49;0.30;99.90
7654;DHT22;3869;48.406;10.774;2022-12-20T01:11:20;0.30;99.90
7654;DHT22;3869;48.406;10.774;2022-12-20T01:13:51;0.30;99.90
7654;DHT22;3869;48.406;10.774;2022-12-20T01:16:22;0.30;99.90
7654;DHT22;3869;48.406;10.774;2022-12-20T01:18:51;0.30;99.90
7654;DHT22;3869;48.406;10.774;2022-12-20T01:21:25;0.30;99.90
7654;DHT22;3869;48.406;10.774;2022-12-20T01:23:53;0.30;99.90
7654;DHT22;3869;48.406;10.774;2022-12-20T01:26:26;0.30;99.90
7654;DHT22;3869;48.406;10.774;2022-12-20T01:28:56;0.30;99.90
7654;DHT22;3869;48.406;10.774;2022-12-20T01:31:25;0.30;99.90
7654;DHT22;3869;48.406;10.774;2022-12-20T01:33:53;0.30;99.90
7654;DHT22;3869;48.406;10.774;2022-12-20T01:36:24;0.30;99.90
7654;DHT22;3869;48.406;10.774;2022-12-20T01:38:55;0.30;99.90
7654;DHT22;3869;48.406;10.774;2022-12-20T01:41:25;0.30;99.90
7654;DHT22;3869;48.406;10.774;2022-12-20T01:43:56;0.20;99.90
7654;DHT22;3869;48.406;10.774;2022-12-20T01:46:25;0.20;99.90
7654;DHT22;3869;48.406;10.774;2022-12-20T01:48:58;0.20;99.90
7654;DHT22;3869;48.406;10.774;2022-12-20T01:51:27;0.20;99.90
7654;DHT22;3869;48.406;10.774;2022-12-20T01:54:00;0.20;99.90
7654;DHT22;3869;48.406;10.774;2022-12-20T01:56:30;0.20;99.90
7654;DHT22;3869;48.406;10.774;2022-12-20T01:59:00;0.30;99.90
7654;DHT22;3869;48.406;10.774;2022-12-20T02:01:28;0.30;99.90
7654;DHT22;3869;48.406;10.774;2022-12-20T02:03:56;0.30;99.90
7654;DHT22;3869;48.406;10.774;2022-12-20T02:06:25;0.30;99.90
7654;DHT22;3869;48.406;10.774;2022-12-20T02:08:56;0.30;99.90
7654;DHT22;3869;48.406;10.774;2022-12-20T02:11:44;0.30;99.90
7654;DHT22;3869;48.406;10.774;2022-12-20T02:14:22;0.20;99.90
7654;DHT22;3869;48.406;10.774;2022-12-20T02:17:02;0.20;99.90
7654;DHT22;3869;48.406;10.774;2022-12-20T02:19:56;0.30;99.90
7654;DHT22;3869;48.406;10.774;2022-12-20T02:22:32;0.30;99.90
7654;DHT22;3869;48.406;10.774;2022-12-20T02:25:34;0.30;99.90
7654;DHT22;3869;48.406;10.774;2022-12-20T02:28:19;0.30;99.90
7654;DHT22;3869;48.406;10.774;2022-12-20T02:30:56;0.40;99.90
7654;DHT22;3869;48.406;10.774;2022-12-20T02:33:26;0.50;99.90
7654;DHT22;3869;48.406;10.774;2022-12-20T02:35:55;0.50;99.90
7654;DHT22;3869;48.406;10.774;2022-12-20T02:38:27;0.50;99.90
7654;DHT22;3869;48.406;10.774;2022-12-20T02:40:58;0.50;99.90
7654;DHT22;3869;48.406;10.774;2022-12-20T02:43:28;0.40;99.90
7654;DHT22;3869;48.406;10.774;2022-12-20T02:46:18;0.40;99.90
7654;DHT22;3869;48.406;10.774;2022-12-20T02:48:48;0.30;99.90
7654;DHT22;3869;48.406;10.774;2022-12-20T02:51:19;0.30;99.90
7654;DHT22;3869;48.406;10.774;2022-12-20T02:53:49;0.30;99.90
7654;DHT22;3869;48.406;10.774;2022-12-20T02:56:20;0.30;99.90
7654;DHT22;3869;48.406;10.774;2022-12-20T02:58:51;0.30;99.90
7654;DHT22;3869;48.406;10.774;2022-12-20T03:01:23;0.40;99.90
7654;DHT22;3869;48.406;10.774;2022-12-20T03:03:53;0.40;99.90
7654;DHT22;3869;48.406;10.774;2022-12-20T03:06:21;0.40;99.90
7654;DHT22;3869;48.406;10.774;2022-12-20T03:08:49;0.40;99.90
7654;DHT22;3869;48.406;10.774;2022-12-20T03:11:17;0.30;99.90
7654;DHT22;3869;48.406;10.774;2022-12-20T03:13:46;0.30;99.90
7654;DHT22;3869;48.406;10.774;2022-12-20T03:16:14;0.30;99.90
7654;DHT22;3869;48.406;10.774;2022-12-20T03:18:43;0.30;99.90
7654;DHT22;3869;48.406;10.774;2022-12-20T03:21:12;0.30;99.90
7654;DHT22;3869;48.406;10.774;2022-12-20T03:23:40;0.40;99.90
7654;DHT22;3869;48.406;10.774;2022-12-20T03:26:08;0.40;99.90
7654;DHT22;3869;48.406;10.774;2022-12-20T03:28:36;0.30;99.90
7654;DHT22;3869;48.406;10.774;2022-12-20T03:31:04;0.30;99.90
7654;DHT22;3869;48.406;10.774;2022-12-20T03:33:32;0.30;99.90
7654;DHT22;3869;48.406;10.774;2022-12-20T03:36:01;0.30;99.90
7654;DHT22;3869;48.406;10.774;2022-12-20T03:38:29;0.30;99.90
7654;DHT22;3869;48.406;10.774;2022-12-20T03:40:57;0.30;99.90
7654;DHT22;3869;48.406;10.774;2022-12-20T03:43:25;0.20;99.90
7654;DHT22;3869;48.406;10.774;2022-12-20T03:45:53;0.30;99.90
7654;DHT22;3869;48.406;10.774;2022-12-20T03:48:22;0.30;99.90
7654;DHT22;3869;48.406;10.774;2022-12-20T03:50:50;0.30;99.90
7654;DHT22;3869;48.406;10.774;2022-12-20T03:53:19;0.30;99.90
7654;DHT22;3869;48.406;10.774;2022-12-20T03:55:47;0.30;99.90
7654;DHT22;3869;48.406;10.774;2022-12-20T03:58:15;0.30;99.90
7654;DHT22;3869;48.406;10.774;2022-12-20T04:00:43;0.40;99.90
7654;DHT22;3869;48.406;10.774;2022-12-20T04:03:11;0.30;99.90
7654;DHT22;3869;48.406;10.774;2022-12-20T04:05:39;0.30;99.90
7654;DHT22;3869;48.406;10.774;2022-12-20T04:08:07;0.30;99.90
7654;DHT22;3869;48.406;10.774;2022-12-20T04:10:37;0.40;99.90
7654;DHT22;3869;48.406;10.774;2022-12-20T04:13:25;0.40;99.90
7654;DHT22;3869;48.406;10.774;2022-12-20T04:15:53;0.30;99.90
7654;DHT22;3869;48.406;10.774;2022-12-20T04:18:26;0.30;99.90
7654;DHT22;3869;48.406;10.774;2022-12-20T04:20:54;0.40;99.90
7654;DHT22;3869;48.406;10.774;2022-12-20T04:23:22;0.30;99.90
7654;DHT22;3869;48.406;10.774;2022-12-20T04:25:52;0.30;99.90
7654;DHT22;3869;48.406;10.774;2022-12-20T04:28:20;0.30;99.90
7654;DHT22;3869;48.406;10.774;2022-12-20T04:30:47;0.30;99.90
7654;DHT22;3869;48.406;10.774;2022-12-20T04:33:16;0.30;99.90
7654;DHT22;3869;48.406;10.774;2022-12-20T04:35:43;0.30;99.90
7654;DHT22;3869;48.406;10.774;2022-12-20T04:38:11;0.30;99.90
7654;DHT22;3869;48.406;10.774;2022-12-20T04:40:39;0.30;99.90
7654;DHT22;3869;48.406;10.774;2022-12-20T04:43:10;0.30;99.90
7654;DHT22;3869;48.406;10.774;2022-12-20T04:45:37;0.30;99.90
7654;DHT22;3869;48.406;10.774;2022-12-20T04:48:06;0.20;99.90
7654;DHT22;3869;48.406;10.774;2022-12-20T04:50:54;0.20;99.90
7654;DHT22;3869;48.406;10.774;2022-12-20T04:53:23;0.20;99.90
7654;DHT22;3869;48.406;10.774;2022-12-20T04:56:08;0.10;99.90
7654;DHT22;3869;48.406;10.774;2022-12-20T04:58:38;0.10;99.90
7654;DHT22;3869;48.406;10.774;2022-12-20T05:01:06;0.10;99.90
7654;DHT22;3869;48.406;10.774;2022-12-20T05:03:34;0.00;99.90
7654;DHT22;3869;48.406;10.774;2022-12-20T05:06:02;0.00;99.90
7654;DHT22;3869;48.406;10.774;2022-12-20T05:08:30;0.00;99.90
7654;DHT22;3869;48.406;10.774;2022-12-20T05:10:58;0.00;99.90
7654;DHT22;3869;48.406;10.774;2022-12-20T05:13:27;0.00;99.90
7654;DHT22;3869;48.406;10.774;2022-12-20T05:15:57;0.00;99.90
7654;DHT22;3869;48.406;10.774;2022-12-20T05:18:26;0.00;99.90
7654;DHT22;3869;48.406;10.774;2022-12-20T05:20:55;-0.10;99.90
7654;DHT22;3869;48.406;10.774;2022-12-20T05:23:41;-0.20;99.90
7654;DHT22;3869;48.406;10.774;2022-12-20T05:26:29;-0.30;99.90
7654;DHT22;3869;48.406;10.774;2022-12-20T05:28:57;-0.30;99.90
7654;DHT22;3869;48.406;10.774;2022-12-20T05:31:27;-0.30;99.90
7654;DHT22;3869;48.406;10.774;2022-12-20T05:33:55;-0.30;99.90
7654;DHT22;3869;48.406;10.774;2022-12-20T05:36:23;-0.30;99.90
7654;DHT22;3869;48.406;10.774;2022-12-20T05:38:51;-0.30;99.90
7654;DHT22;3869;48.406;10.774;2022-12-20T05:41:25;-0.30;99.90
7654;DHT22;3869;48.406;10.774;2022-12-20T05:43:53;-0.30;99.90
7654;DHT22;3869;48.406;10.774;2022-12-20T05:46:21;-0.30;99.90
7654;DHT22;3869;48.406;10.774;2022-12-20T05:48:51;-0.40;99.90
7654;DHT22;3869;48.406;10.774;2022-12-20T05:51:19;-0.50;99.90
7654;DHT22;3869;48.406;10.774;2022-12-20T05:53:47;-0.60;99.90
7654;DHT22;3869;48.406;10.774;2022-12-20T05:56:15;-0.60;99.90
7654;DHT22;3869;48.406;10.774;2022-12-20T05:58:43;-0.50;99.90
7654;DHT22;3869;48.406;10.774;2022-12-20T06:01:11;-0.50;99.90
7654;DHT22;3869;48.406;10.774;2022-12-20T06:03:39;-0.40;99.90
7654;DHT22;3869;48.406;10.774;2022-12-20T06:06:09;-0.40;99.90
7654;DHT22;3869;48.406;10.774;2022-12-20T06:08:40;-0.30;99.90
7654;DHT22;3869;48.406;10.774;2022-12-20T06:11:08;-0.30;99.90
7654;DHT22;3869;48.406;10.774;2022-12-20T06:13:37;-0.20;99.90
7654;DHT22;3869;48.406;10.774;2022-12-20T06:16:05;-0.30;99.90
7654;DHT22;3869;48.406;10.774;2022-12-20T06:18:34;-0.30;99.90
7654;DHT22;3869;48.406;10.774;2022-12-20T06:21:02;-0.30;99.90
7654;DHT22;3869;48.406;10.774;2022-12-20T06:23:31;-0.30;99.90
7654;DHT22;3869;48.406;10.774;2022-12-20T06:25:59;-0.30;99.90
7654;DHT22;3869;48.406;10.774;2022-12-20T06:28:28;-0.20;99.90
7654;DHT22;3869;48.406;10.774;2022-12-20T06:30:57;-0.20;99.90
7654;DHT22;3869;48.406;10.774;2022-12-20T06:33:25;-0.10;99.90
7654;DHT22;3869;48.406;10.774;2022-12-20T06:35:53;-0.10;99.90
7654;DHT22;3869;48.406;10.774;2022-12-20T06:38:21;0.00;99.90
7654;DHT22;3869;48.406;10.774;2022-12-20T06:40:50;0.00;99.90
7654;DHT22;3869;48.406;10.774;2022-12-20T06:43:18;0.00;99.90
7654;DHT22;3869;48.406;10.774;2022-12-20T06:45:46;0.10;99.90
7654;DHT22;3869;48.406;10.774;2022-12-20T06:48:14;0.10;99.90
7654;DHT22;3869;48.406;10.774;2022-12-20T06:50:42;0.10;99.90
7654;DHT22;3869;48.406;10.774;2022-12-20T06:53:16;0.10;99.90
7654;DHT22;3869;48.406;10.774;2022-12-20T06:55:46;0.20;99.90
7654;DHT22;3869;48.406;10.774;2022-12-20T06:58:17;0.20;99.90
7654;DHT22;3869;48.406;10.774;2022-12-20T07:00:45;0.20;99.90
7654;DHT22;3869;48.406;10.774;2022-12-20T07:03:13;0.20;99.90
7654;DHT22;3869;48.406;10.774;2022-12-20T07:05:41;0.20;99.90
7654;DHT22;3869;48.406;10.774;2022-12-20T07:08:09;0.20;99.90
7654;DHT22;3869;48.406;10.774;2022-12-20T07:10:37;0.20;99.90
7654;DHT22;3869;48.406;10.774;2022-12-20T07:13:05;0.20;99.90
7654;DHT22;3869;48.406;10.774;2022-12-20T07:15:36;0.30;99.90
7654;DHT22;3869;48.406;10.774;2022-12-20T07:18:04;0.30;99.90
7654;DHT22;3869;48.406;10.774;2022-12-20T07:20:32;0.20;99.90
7654;DHT22;3869;48.406;10.774;2022-12-20T07:23:00;0.20;99.90
7654;DHT22;3869;48.406;10.774;2022-12-20T07:25:28;0.30;99.90
7654;DHT22;3869;48.406;10.774;2022-12-20T07:27:56;0.30;99.90
7654;DHT22;3869;48.406;10.774;2022-12-20T07:30:24;0.40;99.90
7654;DHT22;3869;48.406;10.774;2022-12-20T07:32:54;0.40;99.90
7654;DHT22;3869;48.406;10.774;2022-12-20T07:35:21;0.40;99.90
7654;DHT22;3869;48.406;10.774;2022-12-20T07:37:51;0.50;99.90
7654;DHT22;3869;48.406;10.774;2022-12-20T07:40:19;0.50;99.90
7654;DHT22;3869;48.406;10.774;2022-12-20T07:42:47;0.50;99.90
7654;DHT22;3869;48.406;10.774;2022-12-20T07:45:15;0.60;99.90
7654;DHT22;3869;48.406;10.774;2022-12-20T07:47:43;0.60;99.90
7654;DHT22;3869;48.406;10.774;2022-12-20T07:50:13;0.60;99.90
7654;DHT22;3869;48.406;10.774;2022-12-20T07:52:43;0.70;99.90
7654;DHT22;3869;48.406;10.774;2022-12-20T07:55:13;0.70;99.90
7654;DHT22;3869;48.406;10.774;2022-12-20T07:57:44;0.70;99.90
7654;DHT22;3869;48.406;10.774;2022-12-20T08:00:15;0.70;99.90
7654;DHT22;3869;48.406;10.774;2022-12-20T08:02:47;0.70;99.90
7654;DHT22;3869;48.406;10.774;2022-12-20T08:05:17;0.70;99.90
7654;DHT22;3869;48.406;10.774;2022-12-20T08:07:45;0.80;99.90
7654;DHT22;3869;48.406;10.774;2022-12-20T08:10:21;0.80;99.90
7654;DHT22;3869;48.406;10.774;2022-12-20T08:12:49;0.90;99.90
7654;DHT22;3869;48.406;10.774;2022-12-20T08:15:17;1.00;99.90
7654;DHT22;3869;48.406;10.774;2022-12-20T08:17:48;1.00;99.90
7654;DHT22;3869;48.406;10.774;2022-12-20T08:20:17;1.00;99.90
7654;DHT22;3869;48.406;10.774;2022-12-20T08:22:46;1.00;99.90
7654;DHT22;3869;48.406;10.774;2022-12-20T08:25:14;1.10;99.90
7654;DHT22;3869;48.406;10.774;2022-12-20T08:27:42;1.10;99.90
7654;DHT22;3869;48.406;10.774;2022-12-20T08:30:10;1.20;99.90
7654;DHT22;3869;48.406;10.774;2022-12-20T08:32:39;1.30;99.90
7654;DHT22;3869;48.406;10.774;2022-12-20T08:35:07;1.30;99.90
7654;DHT22;3869;48.406;10.774;2022-12-20T08:37:36;1.40;99.90
7654;DHT22;3869;48.406;10.774;2022-12-20T08:40:05;1.50;99.90
7654;DHT22;3869;48.406;10.774;2022-12-20T08:42:34;1.50;99.90
7654;DHT22;3869;48.406;10.774;2022-12-20T08:45:03;1.60;99.90
7654;DHT22;3869;48.406;10.774;2022-12-20T08:47:31;1.60;99.90
7654;DHT22;3869;48.406;10.774;2022-12-20T08:49:59;1.70;99.90
7654;DHT22;3869;48.406;10.774;2022-12-20T08:52:27;1.70;99.90
7654;DHT22;3869;48.406;10.774;2022-12-20T08:54:57;1.80;99.90
7654;DHT22;3869;48.406;10.774;2022-12-20T08:57:27;1.80;99.90
7654;DHT22;3869;48.406;10.774;2022-12-20T08:59:55;1.80;99.90
7654;DHT22;3869;48.406;10.774;2022-12-20T09:02:23;1.90;99.90
7654;DHT22;3869;48.406;10.774;2022-12-20T09:04:51;1.90;99.90
7654;DHT22;3869;48.406;10.774;2022-12-20T09:07:19;2.00;99.90
7654;DHT22;3869;48.406;10.774;2022-12-20T09:09:47;2.10;99.90
7654;DHT22;3869;48.406;10.774;2022-12-20T09:12:17;2.10;99.90
7654;DHT22;3869;48.406;10.774;2022-12-20T09:14:45;2.20;99.90
7654;DHT22;3869;48.406;10.774;2022-12-20T09:17:13;2.20;99.90
7654;DHT22;3869;48.406;10.774;2022-12-20T09:19:41;2.20;99.90
7654;DHT22;3869;48.406;10.774;2022-12-20T09:22:09;2.30;99.90
7654;DHT22;3869;48.406;10.774;2022-12-20T09:24:37;2.30;99.90
7654;DHT22;3869;48.406;10.774;2022-12-20T09:27:04;2.30;99.90
7654;DHT22;3869;48.406;10.774;2022-12-20T09:29:34;2.30;99.90
7654;DHT22;3869;48.406;10.774;2022-12-20T09:32:02;2.40;99.90
7654;DHT22;3869;48.406;10.774;2022-12-20T09:34:30;2.30;99.90
7654;DHT22;3869;48.406;10.774;2022-12-20T09:36:58;2.40;99.90
7654;DHT22;3869;48.406;10.774;2022-12-20T09:39:26;2.40;99.90
7654;DHT22;3869;48.406;10.774;2022-12-20T09:41:54;2.40;99.90
7654;DHT22;3869;48.406;10.774;2022-12-20T09:44:25;2.50;99.90
7654;DHT22;3869;48.406;10.774;2022-12-20T09:46:58;2.50;99.90
7654;DHT22;3869;48.406;10.774;2022-12-20T09:49:40;2.60;99.90
7654;DHT22;3869;48.406;10.774;2022-12-20T09:52:22;2.60;99.90
7654;DHT22;3869;48.406;10.774;2022-12-20T09:54:56;2.70;99.90
7654;DHT22;3869;48.406;10.774;2022-12-20T09:57:43;2.70;99.90
7654;DHT22;3869;48.406;10.774;2022-12-20T10:00:16;2.70;99.90
7654;DHT22;3869;48.406;10.774;2022-12-20T10:02:46;2.70;99.90
7654;DHT22;3869;48.406;10.774;2022-12-20T10:05:38;2.70;99.90
7654;DHT22;3869;48.406;10.774;2022-12-20T10:08:16;2.70;99.90
7654;DHT22;3869;48.406;10.774;2022-12-20T10:10:54;2.80;99.90
7654;DHT22;3869;48.406;10.774;2022-12-20T10:13:45;2.80;99.90
7654;DHT22;3869;48.406;10.774;2022-12-20T10:16:27;2.80;99.90
7654;DHT22;3869;48.406;10.774;2022-12-20T10:19:20;2.90;99.90
7654;DHT22;3869;48.406;10.774;2022-12-20T10:22:02;2.90;99.90
7654;DHT22;3869;48.406;10.774;2022-12-20T10:24:33;2.90;99.90
7654;DHT22;3869;48.406;10.774;2022-12-20T10:27:10;2.90;99.90
7654;DHT22;3869;48.406;10.774;2022-12-20T10:29:39;3.00;99.90
7654;DHT22;3869;48.406;10.774;2022-12-20T10:32:12;3.10;99.90
7654;DHT22;3869;48.406;10.774;2022-12-20T10:34:45;3.00;99.90
7654;DHT22;3869;48.406;10.774;2022-12-20T10:37:17;2.90;99.90
7654;DHT22;3869;48.406;10.774;2022-12-20T10:39:47;2.90;99.90
7654;DHT22;3869;48.406;10.774;2022-12-20T10:42:24;2.90;99.90
7654;DHT22;3869;48.406;10.774;2022-12-20T10:44:54;3.10;99.90
7654;DHT22;3869;48.406;10.774;2022-12-20T10:47:33;3.10;99.90
7654;DHT22;3869;48.406;10.774;2022-12-20T10:50:24;3.20;99.90
7654;DHT22;3869;48.406;10.774;2022-12-20T10:53:12;3.40;99.90
7654;DHT22;3869;48.406;10.774;2022-12-20T10:55:44;3.50;99.90
7654;DHT22;3869;48.406;10.774;2022-12-20T10:58:14;3.50;99.90
7654;DHT22;3869;48.406;10.774;2022-12-20T11:00:43;3.60;99.90
7654;DHT22;3869;48.406;10.774;2022-12-20T11:03:16;3.50;99.90
7654;DHT22;3869;48.406;10.774;2022-12-20T11:05:57;3.50;99.90
7654;DHT22;3869;48.406;10.774;2022-12-20T11:08:28;3.50;99.90
7654;DHT22;3869;48.406;10.774;2022-12-20T11:11:14;3.60;99.90
7654;DHT22;3869;48.406;10.774;2022-12-20T11:13:43;3.60;99.90
7654;DHT22;3869;48.406;10.774;2022-12-20T11:16:33;3.70;99.90
7654;DHT22;3869;48.406;10.774;2022-12-20T11:19:17;3.70;99.90
7654;DHT22;3869;48.406;10.774;2022-12-20T11:21:54;3.80;99.90
7654;DHT22;3869;48.406;10.774;2022-12-20T11:24:30;3.90;99.90
7654;DHT22;3869;48.406;10.774;2022-12-20T11:27:10;3.80;99.90
7654;DHT22;3869;48.406;10.774;2022-12-20T11:30:08;3.80;99.90
7654;DHT22;3869;48.406;10.774;2022-12-20T11:35:48;3.90;99.90
7654;DHT22;3869;48.406;10.774;2022-12-20T11:38:31;3.90;99.90
7654;DHT22;3869;48.406;10.774;2022-12-20T11:41:11;3.90;99.90
7654;DHT22;3869;48.406;10.774;2022-12-20T11:44:01;4.00;99.90
7654;DHT22;3869;48.406;10.774;2022-12-20T11:47:13;4.10;99.90
7654;DHT22;3869;48.406;10.774;2022-12-20T11:49:54;4.20;99.90
7654;DHT22;3869;48.406;10.774;2022-12-20T11:52:32;4.30;99.90
7654;DHT22;3869;48.406;10.774;2022-12-20T11:55:08;4.40;99.90
7654;DHT22;3869;48.406;10.774;2022-12-20T11:57:47;4.50;99.90
7654;DHT22;3869;48.406;10.774;2022-12-20T12:00:40;4.50;99.90
7654;DHT22;3869;48.406;10.774;2022-12-20T12:03:14;4.60;99.90
7654;DHT22;3869;48.406;10.774;2022-12-20T12:05:48;4.60;99.90
7654;DHT22;3869;48.406;10.774;2022-12-20T12:08:22;4.40;99.90
7654;DHT22;3869;48.406;10.774;2022-12-20T12:10:57;4.40;99.90
7654;DHT22;3869;48.406;10.774;2022-12-20T12:13:27;4.40;99.90
7654;DHT22;3869;48.406;10.774;2022-12-20T12:16:01;4.30;99.90
7654;DHT22;3869;48.406;10.774;2022-12-20T12:18:34;4.30;99.90
7654;DHT22;3869;48.406;10.774;2022-12-20T12:21:07;4.30;99.90
7654;DHT22;3869;48.406;10.774;2022-12-20T12:23:43;4.40;99.90
7654;DHT22;3869;48.406;10.774;2022-12-20T12:26:18;4.40;99.90
7654;DHT22;3869;48.406;10.774;2022-12-20T12:28:51;4.40;99.90
7654;DHT22;3869;48.406;10.774;2022-12-20T12:31:24;4.40;99.90
7654;DHT22;3869;48.406;10.774;2022-12-20T12:34:04;4.40;99.90
7654;DHT22;3869;48.406;10.774;2022-12-20T12:43:15;4.50;99.90
7654;DHT22;3869;48.406;10.774;2022-12-20T12:45:47;4.50;99.90
7654;DHT22;3869;48.406;10.774;2022-12-20T12:48:18;4.50;99.90
7654;DHT22;3869;48.406;10.774;2022-12-20T12:50:49;4.60;99.90
7654;DHT22;3869;48.406;10.774;2022-12-20T12:53:20;4.60;99.90
7654;DHT22;3869;48.406;10.774;2022-12-20T12:55:50;4.60;99.90
7654;DHT22;3869;48.406;10.774;2022-12-20T12:58:40;4.60;99.90
7654;DHT22;3869;48.406;10.774;2022-12-20T13:01:47;4.60;99.90
7654;DHT22;3869;48.406;10.774;2022-12-20T13:04:25;4.60;99.90
7654;DHT22;3869;48.406;10.774;2022-12-20T13:06:59;4.60;99.90
7654;DHT22;3869;48.406;10.774;2022-12-20T13:09:41;4.60;99.90
7654;DHT22;3869;48.406;10.774;2022-12-20T13:15:57;4.70;99.90
7654;DHT22;3869;48.406;10.774;2022-12-20T13:18:30;4.60;99.90
7654;DHT22;3869;48.406;10.774;2022-12-20T13:21:36;4.50;99.90
7654;DHT22;3869;48.406;10.774;2022-12-20T13:24:49;4.50;99.90
7654;DHT22;3869;48.406;10.774;2022-12-20T13:27:31;4.40;99.90
7654;DHT22;3869;48.406;10.774;2022-12-20T13:30:24;4.40;99.90
7654;DHT22;3869;48.406;10.774;2022-12-20T13:33:17;4.40;99.90
7654;DHT22;3869;48.406;10.774;2022-12-20T13:38:55;4.40;99.90
7654;DHT22;3869;48.406;10.774;2022-12-20T13:41:31;4.40;99.90
7654;DHT22;3869;48.406;10.774;2022-12-20T13:44:22;4.40;99.90
7654;DHT22;3869;48.406;10.774;2022-12-20T13:46:56;4.50;99.90
7654;DHT22;3869;48.406;10.774;2022-12-20T13:49:30;4.40;99.90
7654;DHT22;3869;48.406;10.774;2022-12-20T13:52:14;4.40;99.90
7654;DHT22;3869;48.406;10.774;2022-12-20T13:54:44;4.40;99.90
7654;DHT22;3869;48.406;10.774;2022-12-20T13:57:15;4.40;99.90
7654;DHT22;3869;48.406;10.774;2022-12-20T13:59:45;4.30;99.90
7654;DHT22;3869;48.406;10.774;2022-12-20T14:02:18;4.30;99.90
7654;DHT22;3869;48.406;10.774;2022-12-20T14:04:55;4.20;99.90
7654;DHT22;3869;48.406;10.774;2022-12-20T14:07:26;4.10;99.90
7654;DHT22;3869;48.406;10.774;2022-12-20T14:09:57;4.10;99.90
7654;DHT22;3869;48.406;10.774;2022-12-20T14:12:26;4.10;99.90
7654;DHT22;3869;48.406;10.774;2022-12-20T14:15:18;4.10;99.90
7654;DHT22;3869;48.406;10.774;2022-12-20T14:17:47;4.00;99.90
7654;DHT22;3869;48.406;10.774;2022-12-20T14:20:20;4.00;99.90
7654;DHT22;3869;48.406;10.774;2022-12-20T14:22:53;4.00;99.90
7654;DHT22;3869;48.406;10.774;2022-12-20T14:25:35;4.00;99.90
7654;DHT22;3869;48.406;10.774;2022-12-20T14:28:05;3.90;99.90
7654;DHT22;3869;48.406;10.774;2022-12-20T14:30:50;3.90;99.90
7654;DHT22;3869;48.406;10.774;2022-12-20T14:33:28;3.90;99.90
7654;DHT22;3869;48.406;10.774;2022-12-20T14:36:07;3.90;99.90
7654;DHT22;3869;48.406;10.774;2022-12-20T14:38:35;3.80;99.90
7654;DHT22;3869;48.406;10.774;2022-12-20T14:41:04;3.70;99.90
7654;DHT22;3869;48.406;10.774;2022-12-20T14:43:34;3.60;99.90
7654;DHT22;3869;48.406;10.774;2022-12-20T14:46:14;3.60;99.90
7654;DHT22;3869;48.406;10.774;2022-12-20T14:48:43;3.60;99.90
7654;DHT22;3869;48.406;10.774;2022-12-20T14:51:18;3.50;99.90
7654;DHT22;3869;48.406;10.774;2022-12-20T14:53:48;3.40;99.90
7654;DHT22;3869;48.406;10.774;2022-12-20T14:56:20;3.40;99.90
7654;DHT22;3869;48.406;10.774;2022-12-20T14:59:04;3.40;99.90
7654;DHT22;3869;48.406;10.774;2022-12-20T15:01:32;3.40;99.90
7654;DHT22;3869;48.406;10.774;2022-12-20T15:04:23;3.40;99.90
7654;DHT22;3869;48.406;10.774;2022-12-20T15:06:52;3.40;99.90
7654;DHT22;3869;48.406;10.774;2022-12-20T15:09:21;3.40;99.90
7654;DHT22;3869;48.406;10.774;2022-12-20T15:11:49;3.40;99.90
7654;DHT22;3869;48.406;10.774;2022-12-20T15:14:36;3.40;99.90
7654;DHT22;3869;48.406;10.774;2022-12-20T15:17:10;3.30;99.90
7654;DHT22;3869;48.406;10.774;2022-12-20T15:19:39;3.20;99.90
7654;DHT22;3869;48.406;10.774;2022-12-20T15:22:13;3.20;99.90
7654;DHT22;3869;48.406;10.774;2022-12-20T15:24:42;3.20;99.90
7654;DHT22;3869;48.406;10.774;2022-12-20T15:27:11;3.20;99.90
7654;DHT22;3869;48.406;10.774;2022-12-20T15:29:40;3.20;99.90
7654;DHT22;3869;48.406;10.774;2022-12-20T15:32:14;3.20;99.90
7654;DHT22;3869;48.406;10.774;2022-12-20T15:34:42;3.20;99.90
7654;DHT22;3869;48.406;10.774;2022-12-20T15:37:14;3.20;99.90
7654;DHT22;3869;48.406;10.774;2022-12-20T15:39:44;3.10;99.90
7654;DHT22;3869;48.406;10.774;2022-12-20T15:42:15;3.10;99.90
7654;DHT22;3869;48.406;10.774;2022-12-20T15:44:44;3.00;99.90
7654;DHT22;3869;48.406;10.774;2022-12-20T15:47:13;3.00;99.90
7654;DHT22;3869;48.406;10.774;2022-12-20T15:49:41;3.00;99.90
7654;DHT22;3869;48.406;10.774;2022-12-20T15:52:19;2.90;99.90
7654;DHT22;3869;48.406;10.774;2022-12-20T15:54:48;2.90;99.90
7654;DHT22;3869;48.406;10.774;2022-12-20T15:57:16;2.90;99.90
7654;DHT22;3869;48.406;10.774;2022-12-20T15:59:45;2.90;99.90
7654;DHT22;3869;48.406;10.774;2022-12-20T16:02:28;2.80;99.90
7654;DHT22;3869;48.406;10.774;2022-12-20T16:04:57;2.80;99.90
7654;DHT22;3869;48.406;10.774;2022-12-20T16:07:26;2.70;99.90
7654;DHT22;3869;48.406;10.774;2022-12-20T16:09:54;2.70;99.90
7654;DHT22;3869;48.406;10.774;2022-12-20T16:12:24;2.70;99.90
7654;DHT22;3869;48.406;10.774;2022-12-20T16:14:53;2.70;99.90
7654;DHT22;3869;48.406;10.774;2022-12-20T16:17:21;2.70;99.90
7654;DHT22;3869;48.406;10.774;2022-12-20T16:19:50;2.70;99.90
7654;DHT22;3869;48.406;10.774;2022-12-20T16:22:20;2.80;99.90
7654;DHT22;3869;48.406;10.774;2022-12-20T16:24:50;2.80;99.90
7654;DHT22;3869;48.406;10.774;2022-12-20T16:27:18;2.80;99.90
7654;DHT22;3869;48.406;10.774;2022-12-20T16:29:47;2.80;99.90
7654;DHT22;3869;48.406;10.774;2022-12-20T16:32:17;2.80;99.90
7654;DHT22;3869;48.406;10.774;2022-12-20T16:34:46;2.80;99.90
7654;DHT22;3869;48.406;10.774;2022-12-20T16:37:15;2.80;99.90
7654;DHT22;3869;48.406;10.774;2022-12-20T16:39:44;2.80;99.90
7654;DHT22;3869;48.406;10.774;2022-12-20T16:42:14;2.80;99.90
7654;DHT22;3869;48.406;10.774;2022-12-20T16:44:43;2.70;99.90
7654;DHT22;3869;48.406;10.774;2022-12-20T16:47:13;2.70;99.90
7654;DHT22;3869;48.406;10.774;2022-12-20T16:49:41;2.70;99.90